createdAt,value
2019-03-11T00:00:37.590Z,100479.99
2019-03-11T00:03:07.224Z,100476.69
2019-03-11T00:05:36.680Z,100470.70
2019-03-11T00:08:06.525Z,100468.77
2019-03-11T00:10:35.990Z,100467.12
2019-03-11T00:13:05.543Z,100462.42
2019-03-11T00:15:35.046Z,100463.51
2019-03-11T00:18:04.583Z,100465.38
2019-03-11T00:20:34.050Z,100462.59
2019-03-11T00:23:03.563Z,100459.78
2019-03-11T00:25:33.017Z,100461.38
2019-03-11T00:28:02.507Z,100466.17
2019-03-11T00:30:32.010Z,100472.13
2019-03-11T00:33:01.477Z,100473.14
2019-03-11T00:35:31.020Z,100468.45
2019-03-11T00:38:00.512Z,100469.18
2019-03-11T00:40:29.967Z,100475.70
2019-03-11T00:42:59.451Z,100484.59
2019-03-11T00:45:28.953Z,100489.17
2019-03-11T00:48:02.344Z,100500.26
2019-03-11T00:50:29.642Z,100477.55
2019-03-11T00:52:59.119Z,100483.52
2019-03-11T00:55:28.595Z,100487.36
2019-03-11T00:57:58.052Z,100488.47
2019-03-11T01:00:37.424Z,100482.75
2019-03-11T01:03:07.018Z,100478.15
2019-03-11T01:05:36.497Z,100486.12
2019-03-11T01:08:06.329Z,100482.09
2019-03-11T01:10:35.870Z,100488.15
2019-03-11T01:13:05.546Z,100468.27
2019-03-11T01:15:35.042Z,100483.89
2019-03-11T01:18:04.500Z,100484.45
2019-03-11T01:20:34.075Z,100495.13
2019-03-11T01:23:03.552Z,100476.86
2019-03-11T01:25:33.044Z,100469.81
2019-03-11T01:28:02.502Z,100471.49
2019-03-11T01:30:32.017Z,100476.12
2019-03-11T01:33:01.489Z,100472.06
2019-03-11T01:35:30.962Z,100471.87
2019-03-11T01:38:00.501Z,100461.29
2019-03-11T01:40:29.997Z,100465.41
2019-03-11T01:42:59.456Z,100462.17
2019-03-11T01:45:28.964Z,100459.24
2019-03-11T01:47:58.431Z,100449.20
2019-03-11T01:50:27.994Z,100444.34
2019-03-11T01:52:57.455Z,100432.91
2019-03-11T01:55:26.953Z,100438.97
2019-03-11T01:57:56.413Z,100442.55
2019-03-11T02:00:25.869Z,100447.24
2019-03-11T02:02:55.370Z,100453.81
2019-03-11T02:05:24.842Z,100452.73
2019-03-11T02:07:54.334Z,100451.94
2019-03-11T02:10:23.828Z,100446.22
2019-03-11T02:12:53.300Z,100442.38
2019-03-11T02:15:22.785Z,100442.89
2019-03-11T02:17:52.245Z,100442.33
2019-03-11T02:20:21.737Z,100440.42
2019-03-11T02:22:51.207Z,100434.37
2019-03-11T02:25:20.751Z,100439.51
2019-03-11T02:27:50.235Z,100439.23
2019-03-11T02:30:19.788Z,100439.73
2019-03-11T02:32:49.342Z,100437.27
2019-03-11T02:35:33.799Z,100439.97
2019-03-11T02:38:03.308Z,100434.19
2019-03-11T02:40:32.790Z,100441.53
2019-03-11T02:43:02.314Z,100428.64
2019-03-11T02:45:31.905Z,100430.77
2019-03-11T02:48:01.358Z,100431.00
2019-03-11T02:50:30.989Z,100431.77
2019-03-11T02:53:00.450Z,100424.37
2019-03-11T02:55:29.937Z,100436.05
2019-03-11T02:57:59.434Z,100428.38
2019-03-11T03:00:28.892Z,100431.90
2019-03-11T03:03:02.732Z,100421.73
2019-03-11T03:05:42.590Z,100430.95
2019-03-11T03:08:12.042Z,100426.00
2019-03-11T03:10:41.522Z,100419.64
2019-03-11T03:13:11.055Z,100414.41
2019-03-11T03:15:40.547Z,100410.24
2019-03-11T03:18:10.099Z,100410.71
2019-03-11T03:20:39.621Z,100416.94
2019-03-11T03:23:09.144Z,100423.41
2019-03-11T03:25:38.634Z,100424.75
2019-03-11T03:28:08.199Z,100426.05
2019-03-11T03:30:37.959Z,100412.10
2019-03-11T03:33:07.481Z,100427.89
2019-03-11T03:35:36.993Z,100417.72
2019-03-11T03:38:06.529Z,100418.25
2019-03-11T03:40:36.024Z,100418.51
2019-03-11T03:43:05.841Z,100418.76
2019-03-11T03:45:39.461Z,100428.33
2019-03-11T03:48:08.883Z,100425.84
2019-03-11T03:50:40.299Z,100424.70
2019-03-11T03:53:10.114Z,100425.48
2019-03-11T03:55:39.678Z,100427.11
2019-03-11T03:58:09.169Z,100429.55
2019-03-11T04:00:38.722Z,100422.40
2019-03-11T04:03:08.288Z,100438.00
2019-03-11T04:05:37.760Z,100442.89
2019-03-11T04:08:07.215Z,100441.02
2019-03-11T04:10:36.716Z,100436.92
2019-03-11T04:13:06.276Z,100442.14
2019-03-11T04:15:35.721Z,100441.34
2019-03-11T04:18:09.059Z,100453.64
2019-03-11T04:20:38.869Z,100458.86
2019-03-11T04:23:08.358Z,100461.88
2019-03-11T04:25:38.005Z,100455.66
2019-03-11T04:28:07.603Z,100454.28
2019-03-11T04:30:37.109Z,100460.61
2019-03-11T04:33:06.582Z,100460.36
2019-03-11T04:35:36.128Z,100467.19
2019-03-11T04:38:05.576Z,100474.08
2019-03-11T04:40:35.077Z,100480.09
2019-03-11T04:43:04.663Z,100475.73
2019-03-11T04:45:34.127Z,100462.68
2019-03-11T04:48:03.635Z,100459.69
2019-03-11T04:50:33.205Z,100453.97
2019-03-11T04:53:02.707Z,100460.55
2019-03-11T04:55:32.159Z,100455.34
2019-03-11T04:58:01.720Z,100463.53
2019-03-11T05:00:32.824Z,100471.98
2019-03-11T05:03:02.418Z,100488.89
2019-03-11T05:05:32.047Z,100482.06
2019-03-11T05:08:01.581Z,100487.84
2019-03-11T05:10:31.074Z,100481.05
2019-03-11T05:13:00.606Z,100475.92
2019-03-11T05:15:30.053Z,100474.91
2019-03-11T05:17:59.502Z,100469.54
2019-03-11T05:20:28.962Z,100476.45
2019-03-11T05:22:58.535Z,100478.73
2019-03-11T05:25:27.997Z,100478.58
2019-03-11T05:27:57.492Z,100482.47
2019-03-11T05:30:27.080Z,100479.57
2019-03-11T05:32:56.562Z,100507.78
2019-03-11T05:35:26.169Z,100496.69
2019-03-11T05:37:55.656Z,100492.11
2019-03-11T05:40:25.281Z,100496.27
2019-03-11T05:42:54.738Z,100500.63
2019-03-11T05:45:24.266Z,100504.22
2019-03-11T05:47:53.769Z,100501.74
2019-03-11T05:50:23.226Z,100533.13
2019-03-11T05:52:52.793Z,100526.56
2019-03-11T05:55:22.299Z,100523.84
2019-03-11T05:57:51.839Z,100533.11
2019-03-11T06:00:24.103Z,100534.42
2019-03-11T06:02:53.567Z,100542.58
2019-03-11T06:05:23.121Z,100519.33
2019-03-11T06:07:52.619Z,100530.22
2019-03-11T06:10:22.178Z,100549.06
2019-03-11T06:12:51.818Z,100545.77
2019-03-11T06:15:21.316Z,100541.16
2019-03-11T06:17:50.841Z,100546.11
2019-03-11T06:20:32.327Z,100555.45
2019-03-11T06:23:03.511Z,100549.77
2019-03-11T06:25:32.989Z,100543.02
2019-03-11T06:28:03.051Z,100546.08
2019-03-11T06:30:32.983Z,100551.88
2019-03-11T06:33:02.486Z,100548.11
2019-03-11T06:35:32.021Z,100555.78
2019-03-11T06:38:01.565Z,100551.70
2019-03-11T06:40:31.195Z,100559.89
2019-03-11T06:43:00.679Z,100557.47
2019-03-11T06:45:30.132Z,100554.44
2019-03-11T06:47:59.632Z,100552.02
2019-03-11T06:50:29.168Z,100555.27
2019-03-11T06:52:58.680Z,100551.42
2019-03-11T06:55:28.171Z,100553.31
2019-03-11T06:57:57.671Z,100563.38
2019-03-11T07:00:27.201Z,100571.77
2019-03-11T07:02:56.707Z,100585.65
2019-03-11T07:05:26.211Z,100577.46
2019-03-11T07:07:55.751Z,100583.72
2019-03-11T07:10:25.249Z,100578.57
2019-03-11T07:12:54.695Z,100590.33
2019-03-11T07:15:24.375Z,100591.20
2019-03-11T07:17:53.900Z,100592.09
2019-03-11T07:20:23.384Z,100604.70
2019-03-11T07:22:52.885Z,100608.02
2019-03-11T07:25:22.424Z,100612.92
2019-03-11T07:27:51.915Z,100605.58
2019-03-11T07:30:21.733Z,100608.62
2019-03-11T07:32:51.240Z,100612.14
2019-03-11T07:35:20.709Z,100615.12
2019-03-11T07:37:50.266Z,100610.77
2019-03-11T07:40:29.307Z,100619.47
2019-03-11T07:42:51.156Z,100625.16
2019-03-11T07:45:20.652Z,100630.31
2019-03-11T07:47:50.214Z,100628.08
2019-03-11T07:50:19.807Z,100633.48
2019-03-11T07:52:49.293Z,100664.02
2019-03-11T07:55:18.879Z,100654.39
2019-03-11T07:57:48.421Z,100651.35
2019-03-11T08:00:19.973Z,100654.33
2019-03-11T08:02:49.576Z,100650.49
2019-03-11T08:05:19.141Z,100653.16
2019-03-11T08:07:48.639Z,100645.22
2019-03-11T08:10:25.947Z,100652.56
2019-03-11T08:12:55.520Z,100654.70
2019-03-11T08:15:24.996Z,100664.76
2019-03-11T08:17:54.485Z,100658.71
2019-03-11T08:20:24.060Z,100673.42
2019-03-11T08:22:53.606Z,100671.20
2019-03-11T08:25:23.097Z,100673.34
2019-03-11T08:27:52.591Z,100688.88
2019-03-11T08:30:23.695Z,100666.76
2019-03-11T08:32:53.180Z,100668.10
2019-03-11T08:35:22.771Z,100674.34
2019-03-11T08:37:52.219Z,100680.31
2019-03-11T08:40:22.515Z,100688.17
2019-03-11T08:42:52.007Z,100690.34
2019-03-11T08:45:21.549Z,100692.48
2019-03-11T08:47:51.013Z,100689.70
2019-03-11T08:50:20.569Z,100695.41
2019-03-11T08:52:50.050Z,100701.13
2019-03-11T08:55:19.572Z,100722.67
2019-03-11T08:57:49.062Z,100710.95
2019-03-11T09:00:22.275Z,100704.40
2019-03-11T09:02:51.904Z,100710.09
2019-03-11T09:05:21.501Z,100708.14
2019-03-11T09:07:51.065Z,100738.71
2019-03-11T09:10:20.894Z,100708.63
2019-03-11T09:12:50.421Z,100736.73
2019-03-11T09:15:22.281Z,100729.59
2019-03-11T09:17:51.763Z,100743.77
2019-03-11T09:20:21.300Z,100741.03
2019-03-11T09:22:50.869Z,100738.02
2019-03-11T09:25:28.555Z,100744.80
2019-03-11T09:27:58.067Z,100746.09
2019-03-11T09:30:27.673Z,100748.48
2019-03-11T09:32:57.241Z,100751.45
2019-03-11T09:35:26.784Z,100756.59
2019-03-11T09:37:56.287Z,100761.46
2019-03-11T09:40:25.822Z,100775.64
2019-03-11T09:42:55.296Z,100766.39
2019-03-11T09:45:25.038Z,100760.41
2019-03-11T09:47:54.739Z,100767.50
2019-03-11T09:50:24.308Z,100772.97
2019-03-11T09:52:53.825Z,100790.73
2019-03-11T09:55:27.124Z,100768.02
2019-03-11T09:57:56.599Z,100780.00
2019-03-11T10:00:29.827Z,100778.61
2019-03-11T10:02:59.345Z,100778.88
2019-03-11T10:05:28.954Z,100782.06
2019-03-11T10:07:58.448Z,100786.91
2019-03-11T10:10:30.039Z,100786.32
2019-03-11T10:12:59.646Z,100793.59
2019-03-11T10:15:29.157Z,100806.59
2019-03-11T10:17:58.650Z,100790.16
2019-03-11T10:20:28.178Z,100786.84
2019-03-11T10:22:57.681Z,100794.45
2019-03-11T10:25:27.178Z,100782.91
2019-03-11T10:27:56.786Z,100785.81
2019-03-11T10:30:26.411Z,100784.66
2019-03-11T10:32:55.955Z,100788.92
2019-03-11T10:35:33.120Z,100791.25
2019-03-11T10:37:56.709Z,100795.23
2019-03-11T10:40:33.217Z,100786.33
2019-03-11T10:43:02.670Z,100796.33
2019-03-11T10:45:32.483Z,100787.73
2019-03-11T10:48:02.164Z,100789.20
2019-03-11T10:50:31.663Z,100805.47
2019-03-11T10:53:01.209Z,100805.02
2019-03-11T10:55:30.801Z,100797.14
2019-03-11T10:58:00.345Z,100805.72
2019-03-11T11:00:32.930Z,100810.48
2019-03-11T11:03:02.615Z,100798.80
2019-03-11T11:05:32.260Z,100808.22
2019-03-11T11:08:01.908Z,100813.23
2019-03-11T11:10:31.400Z,100809.77
2019-03-11T11:13:00.971Z,100821.15
2019-03-11T11:15:32.239Z,100820.17
2019-03-11T11:18:01.807Z,100815.33
2019-03-11T11:20:31.395Z,100835.98
2019-03-11T11:23:00.880Z,100817.74
2019-03-11T11:25:31.488Z,100835.20
2019-03-11T11:28:01.050Z,100835.96
2019-03-11T11:30:33.508Z,100844.94
2019-03-11T11:33:03.064Z,100828.91
2019-03-11T11:35:32.558Z,100832.35
2019-03-11T11:38:02.079Z,100843.95
2019-03-11T11:40:32.233Z,100846.20
2019-03-11T11:43:01.708Z,100835.60
2019-03-11T11:45:33.355Z,100839.59
2019-03-11T11:48:02.900Z,100835.30
2019-03-11T11:50:32.523Z,100838.49
2019-03-11T11:53:02.178Z,100829.63
2019-03-11T11:55:31.679Z,100831.98
2019-03-11T11:58:01.142Z,100823.13
2019-03-11T12:00:34.234Z,100841.72
2019-03-11T12:03:03.767Z,100850.63
2019-03-11T12:05:33.477Z,100840.58
2019-03-11T12:08:03.049Z,100850.94
2019-03-11T12:10:33.849Z,100839.56
2019-03-11T12:13:03.405Z,100858.91
2019-03-11T12:15:33.016Z,100845.03
2019-03-11T12:18:02.477Z,100850.03
2019-03-11T12:20:32.605Z,100841.02
2019-03-11T12:23:02.062Z,100838.28
2019-03-11T12:25:31.621Z,100851.58
2019-03-11T12:28:01.193Z,100860.81
2019-03-11T12:30:34.917Z,100856.30
2019-03-11T12:33:04.476Z,100854.92
2019-03-11T12:35:34.183Z,100858.15
2019-03-11T12:38:03.774Z,100889.24
2019-03-11T12:40:33.342Z,100869.62
2019-03-11T12:43:02.822Z,100875.92
2019-03-11T12:45:32.319Z,100870.51
2019-03-11T12:48:01.826Z,100893.61
2019-03-11T12:50:33.171Z,100882.45
2019-03-11T12:53:02.637Z,100893.12
2019-03-11T12:55:32.160Z,100891.05
2019-03-11T12:58:01.764Z,100891.98
2019-03-11T13:00:31.255Z,100886.56
2019-03-11T13:03:00.765Z,100901.55
2019-03-11T13:05:30.237Z,100906.17
2019-03-11T13:07:59.723Z,100896.20
2019-03-11T13:10:31.841Z,100898.65
2019-03-11T13:13:01.426Z,100893.39
2019-03-11T13:15:30.996Z,100903.27
2019-03-11T13:18:27.464Z,100906.81
2019-03-11T13:20:56.953Z,100908.03
2019-03-11T13:23:26.416Z,100905.68
2019-03-11T13:25:56.071Z,100915.22
2019-03-11T13:28:25.612Z,100911.48
2019-03-11T13:30:55.149Z,100908.88
2019-03-11T13:33:24.920Z,100924.41
2019-03-11T13:35:56.640Z,100928.64
2019-03-11T13:38:25.775Z,100927.41
2019-03-11T13:40:55.331Z,100932.17
2019-03-11T13:43:24.815Z,100933.79
2019-03-11T13:45:54.313Z,100947.80
2019-03-11T13:48:23.861Z,100943.91
2019-03-11T13:50:53.360Z,100959.87
2019-03-11T13:53:22.989Z,100947.98
2019-03-11T13:55:52.459Z,100953.54
2019-03-11T13:58:21.965Z,100937.28
2019-03-11T14:00:56.871Z,100938.16
2019-03-11T14:03:22.716Z,100955.00
2019-03-11T14:05:52.193Z,100958.05
2019-03-11T14:08:21.709Z,100947.80
2019-03-11T14:10:51.217Z,100954.77
2019-03-11T14:13:20.683Z,100953.04
2019-03-11T14:15:50.236Z,100973.92
2019-03-11T14:18:19.812Z,100982.48
2019-03-11T14:20:49.324Z,100981.65
2019-03-11T14:23:18.872Z,100971.77
2019-03-11T14:25:48.369Z,100988.28
2019-03-11T14:28:17.973Z,100995.79
2019-03-11T14:30:47.537Z,100987.05
2019-03-11T14:33:17.222Z,100984.92
2019-03-11T14:35:46.973Z,101002.02
2019-03-11T14:38:16.537Z,100985.64
2019-03-11T14:40:46.106Z,100981.81
2019-03-11T14:43:15.581Z,101001.07
2019-03-11T14:45:45.065Z,100990.31
2019-03-11T14:48:14.650Z,100989.69
2019-03-11T14:50:44.153Z,100995.13
2019-03-11T14:53:13.626Z,101009.38
2019-03-11T14:55:43.201Z,100978.73
2019-03-11T14:58:12.698Z,101001.44
2019-03-11T15:00:42.283Z,101013.67
2019-03-11T15:03:11.818Z,101015.70
2019-03-11T15:05:41.404Z,101013.15
2019-03-11T15:08:12.734Z,101006.52
2019-03-11T15:10:42.102Z,101005.14
2019-03-11T15:13:11.631Z,101011.55
2019-03-11T15:15:41.146Z,101017.55
2019-03-11T15:18:10.691Z,101019.25
2019-03-11T15:20:40.337Z,101012.38
2019-03-11T15:23:19.962Z,101020.14
2019-03-11T15:25:41.350Z,101022.64
2019-03-11T15:28:10.873Z,101028.53
2019-03-11T15:30:40.412Z,101014.03
2019-03-11T15:33:10.079Z,101020.41
2019-03-11T15:35:39.675Z,101017.41
2019-03-11T15:38:09.149Z,101035.80
2019-03-11T15:40:38.675Z,101064.44
2019-03-11T15:43:08.181Z,101037.80
2019-03-11T15:45:38.975Z,101033.98
2019-03-11T15:48:08.904Z,101053.81
2019-03-11T15:50:38.687Z,101028.61
2019-03-11T15:53:08.198Z,101036.95
2019-03-11T15:55:37.737Z,101044.43
2019-03-11T15:58:07.307Z,101049.44
2019-03-11T16:00:36.948Z,101032.18
2019-03-11T16:03:06.451Z,101055.06
2019-03-11T16:05:36.122Z,101050.70
2019-03-11T16:08:05.687Z,101054.32
2019-03-11T16:10:35.297Z,101051.02
2019-03-11T16:13:04.881Z,101068.66
2019-03-11T16:15:34.538Z,101072.45
2019-03-11T16:18:04.119Z,101076.33
2019-03-11T16:20:33.711Z,101071.91
2019-03-11T16:23:03.249Z,101092.28
2019-03-11T16:25:32.831Z,101073.33
2019-03-11T16:28:02.441Z,101084.83
2019-03-11T16:30:32.026Z,101079.08
2019-03-11T16:33:01.784Z,101081.53
2019-03-11T16:35:31.376Z,101087.03
2019-03-11T16:38:00.927Z,101102.95
2019-03-11T16:40:30.390Z,101077.66
2019-03-11T16:43:00.851Z,101083.70
2019-03-11T16:45:30.538Z,101080.70
2019-03-11T16:48:00.113Z,101083.70
2019-03-11T16:50:29.605Z,101114.84
2019-03-11T16:52:59.082Z,101092.03
2019-03-11T16:55:39.157Z,101109.09
2019-03-11T16:58:08.631Z,101106.96
2019-03-11T17:00:51.810Z,101104.30
2019-03-11T17:03:21.427Z,101128.05
2019-03-11T17:05:51.044Z,101125.43
2019-03-11T17:08:20.685Z,101117.30
2019-03-11T17:10:50.161Z,101114.92
2019-03-11T17:13:19.686Z,101117.17
2019-03-11T17:15:49.272Z,101133.28
2019-03-11T17:18:18.764Z,101135.03
2019-03-11T17:20:48.349Z,101141.98
2019-03-11T17:23:17.862Z,101152.30
2019-03-11T17:25:47.374Z,101166.44
2019-03-11T17:28:17.040Z,101163.30
2019-03-11T17:30:46.585Z,101163.77
2019-03-11T17:33:16.068Z,101166.16
2019-03-11T17:35:45.750Z,101174.31
2019-03-11T17:38:15.225Z,101194.51
2019-03-11T17:40:44.685Z,101202.56
2019-03-11T17:43:14.181Z,101213.95
2019-03-11T17:45:43.696Z,101213.80
2019-03-11T17:48:13.167Z,101211.69
2019-03-11T17:50:42.727Z,101222.25
2019-03-11T17:53:19.933Z,101227.31
2019-03-11T17:55:43.655Z,101224.95
2019-03-11T17:58:13.307Z,101227.24
2019-03-11T18:00:54.822Z,101240.73
2019-03-11T18:03:15.875Z,101244.65
2019-03-11T18:05:45.472Z,101252.62
2019-03-11T18:08:15.017Z,101264.45
2019-03-11T18:10:44.643Z,101275.43
2019-03-11T18:13:14.170Z,101274.31
2019-03-11T18:15:43.645Z,101283.61
2019-03-11T18:18:13.357Z,101291.81
2019-03-11T18:20:42.839Z,101278.61
2019-03-11T18:23:12.355Z,101298.59
2019-03-11T18:25:41.890Z,101310.34
2019-03-11T18:28:11.461Z,101314.46
2019-03-11T18:30:41.004Z,101302.88
2019-03-11T18:33:10.550Z,101296.53
2019-03-11T18:35:40.090Z,101330.79
2019-03-11T18:38:09.649Z,101319.53
2019-03-11T18:40:39.117Z,101334.56
2019-03-11T18:43:19.868Z,101326.05
2019-03-11T18:45:39.934Z,101323.56
2019-03-11T18:48:09.530Z,101339.17
2019-03-11T18:50:39.192Z,101330.66
2019-03-11T18:53:08.802Z,101344.64
2019-03-11T18:55:38.358Z,101360.25
2019-03-11T18:58:07.928Z,101362.17
2019-03-11T19:00:37.846Z,101365.77
2019-03-11T19:03:07.413Z,101357.28
2019-03-11T19:05:36.883Z,101361.91
2019-03-11T19:08:06.450Z,101387.73
2019-03-11T19:10:35.923Z,101371.84
2019-03-11T19:13:05.515Z,101356.73
2019-03-11T19:15:35.120Z,101380.61
2019-03-11T19:18:04.709Z,101378.12
2019-03-11T19:20:34.353Z,101408.89
2019-03-11T19:23:04.032Z,101381.72
2019-03-11T19:25:33.681Z,101392.19
2019-03-11T19:28:03.275Z,101395.27
2019-03-11T19:30:32.798Z,101393.37
2019-03-11T19:33:02.296Z,101402.23
2019-03-11T19:35:31.859Z,101408.31
2019-03-11T19:38:01.419Z,101413.54
2019-03-11T19:40:30.883Z,101414.66
2019-03-11T19:43:00.381Z,101427.58
2019-03-11T19:45:29.912Z,101422.09
2019-03-11T19:47:59.458Z,101427.84
2019-03-11T19:50:29.034Z,101434.13
2019-03-11T19:52:59.607Z,101438.24
2019-03-11T19:55:29.382Z,101434.36
2019-03-11T19:57:58.928Z,101443.45
2019-03-11T20:00:28.613Z,101459.06
2019-03-11T20:02:58.109Z,101456.60
2019-03-11T20:05:30.378Z,101455.23
2019-03-11T20:08:00.066Z,101445.94
2019-03-11T20:10:29.791Z,101458.28
2019-03-11T20:12:59.400Z,101456.08
2019-03-11T20:15:28.991Z,101464.03
2019-03-11T20:17:58.612Z,101458.55
2019-03-11T20:20:28.219Z,101464.83
2019-03-11T20:22:57.699Z,101471.16
2019-03-11T20:25:30.814Z,101472.53
2019-03-11T20:28:00.470Z,101486.20
2019-03-11T20:30:30.141Z,101480.77
2019-03-11T20:32:59.803Z,101484.87
2019-03-11T20:35:29.466Z,101497.48
2019-03-11T20:37:59.015Z,101485.98
2019-03-11T20:40:28.545Z,101498.08
2019-03-11T20:42:58.073Z,101509.34
2019-03-11T20:45:27.589Z,101513.19
2019-03-11T20:47:57.136Z,101517.09
2019-03-11T20:50:26.728Z,101521.23
2019-03-11T20:52:56.359Z,101522.64
2019-03-11T20:55:25.943Z,101536.92
2019-03-11T20:57:55.419Z,101541.34
2019-03-11T21:00:28.939Z,101535.02
2019-03-11T21:03:00.075Z,101536.72
2019-03-11T21:05:40.011Z,101535.92
2019-03-11T21:08:09.714Z,101536.52
2019-03-11T21:10:39.223Z,101532.98
2019-03-11T21:13:08.931Z,101536.30
2019-03-11T21:15:38.536Z,101537.99
2019-03-11T21:18:08.021Z,101541.06
2019-03-11T21:20:37.567Z,101549.61
2019-03-11T21:23:07.360Z,101553.73
2019-03-11T21:25:37.009Z,101543.36
2019-03-11T21:28:06.563Z,101544.77
2019-03-11T21:30:36.179Z,101546.99
2019-03-11T21:33:05.891Z,101553.05
2019-03-11T21:35:35.435Z,101557.47
2019-03-11T21:38:05.114Z,101559.13
2019-03-11T21:40:34.630Z,101554.74
2019-03-11T21:43:04.092Z,101553.95
2019-03-11T21:45:34.807Z,101554.53
2019-03-11T21:48:04.734Z,101559.78
2019-03-11T21:50:34.238Z,101556.52
2019-03-11T21:53:03.823Z,101564.21
2019-03-11T21:55:33.298Z,101563.45
2019-03-11T21:58:12.605Z,101565.92
2019-03-11T22:00:35.198Z,101564.34
2019-03-11T22:03:05.223Z,101561.06
2019-03-11T22:05:34.727Z,101569.05
2019-03-11T22:08:04.257Z,101583.59
2019-03-11T22:10:33.764Z,101584.73
2019-03-11T22:13:03.284Z,101587.77
2019-03-11T22:15:32.835Z,101582.86
2019-03-11T22:18:02.314Z,101581.76
2019-03-11T22:20:31.832Z,101580.16
2019-03-11T22:23:01.329Z,101581.52
2019-03-11T22:25:30.803Z,101590.04
2019-03-11T22:28:00.390Z,101592.23
2019-03-11T22:30:29.856Z,101590.09
2019-03-11T22:32:59.349Z,101594.77
2019-03-11T22:35:29.276Z,101595.06
2019-03-11T22:37:59.181Z,101589.88
2019-03-11T22:40:28.652Z,101594.81
2019-03-11T22:42:58.128Z,101595.11
2019-03-11T22:45:27.651Z,101600.34
2019-03-11T22:47:57.213Z,101599.27
2019-03-11T22:50:26.676Z,101605.30
2019-03-11T22:52:56.152Z,101611.06
2019-03-11T22:55:25.603Z,101605.58
2019-03-11T22:57:55.106Z,101615.72
2019-03-11T23:00:41.805Z,101614.36
2019-03-11T23:03:12.030Z,101612.73
2019-03-11T23:05:57.149Z,101608.38
2019-03-11T23:08:12.856Z,101598.81
2019-03-11T23:10:42.329Z,101598.85
2019-03-11T23:13:11.811Z,101594.48
2019-03-11T23:15:41.291Z,101596.16
2019-03-11T23:18:10.944Z,101594.51
2019-03-11T23:20:40.514Z,101592.59
2019-03-11T23:23:10.129Z,101583.59
2019-03-11T23:25:39.698Z,101592.87
2019-03-11T23:28:09.319Z,101589.88
2019-03-11T23:30:38.964Z,101591.77
2019-03-11T23:33:08.421Z,101593.13
2019-03-11T23:35:37.919Z,101597.73
2019-03-11T23:38:07.416Z,101595.84
2019-03-11T23:40:36.920Z,101593.91
2019-03-11T23:43:06.531Z,101592.27
2019-03-11T23:45:36.081Z,101584.88
2019-03-11T23:48:05.711Z,101581.88
2019-03-11T23:50:35.247Z,101576.13
2019-03-11T23:53:04.782Z,101582.39
2019-03-11T23:55:34.278Z,101593.30
2019-03-11T23:58:03.741Z,101597.10
